Time;durP1;ratioP1;P1;durP2;ratioP2;P2;SDS_P1;SDS_P2;PMS_P1;PMS_P2;Temp;Humidity;BMP_temperature;BMP_pressure;BME280_temperature;BME280_humidity;BME280_pressure;Samples;Min_cycle;Max_cycle;Signal;HPM_P1;HPM_P2
2024/04/18 00:00:37;;;;;;;1.40;0.97;;;12.40;96.50;;;;;;5555152;25;21132;-49
2024/04/18 00:03:05;;;;;;;1.53;0.80;;;12.40;96.50;;;;;;5561003;25;20511;-49
2024/04/18 00:05:35;;;;;;;1.20;0.90;;;12.40;96.50;;;;;;5554141;25;20587;-47
2024/04/18 00:08:02;;;;;;;1.20;0.80;;;12.40;96.50;;;;;;5562756;25;20448;-47
2024/04/18 00:10:32;;;;;;;1.20;0.90;;;12.40;96.50;;;;;;5561294;25;21022;-47
2024/04/18 00:13:02;;;;;;;1.30;0.80;;;12.40;96.50;;;;;;5554901;25;20446;-47
2024/04/18 00:15:32;;;;;;;1.53;0.93;;;12.40;96.50;;;;;;5552994;25;20462;-48
2024/04/18 00:17:59;;;;;;;1.10;0.73;;;12.40;96.50;;;;;;5554887;25;20443;-51
2024/04/18 00:20:30;;;;;;;1.20;0.90;;;12.40;96.50;;;;;;5559206;25;20450;-50
2024/04/18 00:23:16;;;;;;;1.23;0.97;;;12.40;96.50;;;;;;5558479;25;20518;-47
2024/04/18 00:26:06;;;;;;;1.30;0.80;;;12.40;96.50;;;;;;5551971;25;20506;-47
2024/04/18 00:28:56;;;;;;;1.40;1.00;;;12.40;96.50;;;;;;5547001;25;20563;-48
2024/04/18 00:31:26;;;;;;;1.27;0.90;;;12.40;96.50;;;;;;5560450;25;21050;-48
2024/04/18 00:33:56;;;;;;;1.20;0.80;;;12.40;96.50;;;;;;5554754;25;20450;-47
2024/04/18 00:36:29;;;;;;;1.40;1.00;;;12.30;96.50;;;;;;5550231;25;20803;-49
2024/04/18 00:39:16;;;;;;;1.30;0.90;;;12.40;96.50;;;;;;5558790;25;20463;-47
2024/04/18 00:42:01;;;;;;;2.03;0.90;;;12.40;96.60;;;;;;5560452;25;20438;-48
2024/04/18 00:44:31;;;;;;;1.90;1.30;;;12.30;96.70;;;;;;5537535;25;20546;-47
2024/04/18 00:47:16;;;;;;;1.23;0.77;;;12.40;96.50;;;;;;5560236;25;20504;-49
2024/04/18 00:50:03;;;;;;;1.53;0.90;;;12.40;96.50;;;;;;5554786;25;20457;-48
2024/04/18 00:52:42;;;;;;;1.80;1.13;;;12.40;96.50;;;;;;5559944;25;20447;-48
2024/04/18 00:55:25;;;;;;;1.50;1.17;;;12.40;96.50;;;;;;5560370;25;20525;-48
2024/04/18 00:58:12;;;;;;;1.20;1.10;;;12.30;96.50;;;;;;5556540;25;20510;-49
2024/04/18 01:00:45;;;;;;;1.40;0.90;;;12.30;96.50;;;;;;5554577;25;20514;-51
2024/04/18 01:03:34;;;;;;;1.20;0.90;;;12.30;96.60;;;;;;5553758;25;20455;-47
2024/04/18 01:06:05;;;;;;;2.50;1.23;;;12.40;96.60;;;;;;5561078;25;20507;-48
2024/04/18 01:08:54;;;;;;;1.20;0.90;;;12.30;96.50;;;;;;5548384;25;20469;-47
2024/04/18 01:11:30;;;;;;;1.43;1.17;;;12.30;96.50;;;;;;5552135;25;20450;-48
2024/04/18 01:14:09;;;;;;;2.30;1.80;;;12.30;96.50;;;;;;5554691;25;21090;-47
2024/04/18 01:16:58;;;;;;;1.50;1.10;;;12.30;96.40;;;;;;5560357;25;20480;-47
2024/04/18 01:19:28;;;;;;;1.80;1.10;;;12.30;96.50;;;;;;5554353;25;20507;-46
2024/04/18 01:21:56;;;;;;;2.23;1.30;;;12.30;96.50;;;;;;5558481;25;20563;-51
2024/04/18 01:24:30;;;;;;;1.53;1.40;;;12.30;96.50;;;;;;5552017;25;20459;-49
2024/04/18 01:27:00;;;;;;;1.70;1.13;;;12.30;96.60;;;;;;5560601;25;20548;-49
2024/04/18 01:29:46;;;;;;;1.13;0.80;;;12.30;96.60;;;;;;5548405;25;20575;-48
2024/04/18 01:32:32;;;;;;;1.40;0.83;;;12.30;96.60;;;;;;5552979;25;20568;-48
2024/04/18 01:35:02;;;;;;;1.40;1.13;;;12.30;96.60;;;;;;5559974;25;20559;-49
2024/04/18 01:37:45;;;;;;;1.63;1.23;;;12.30;96.60;;;;;;5541817;25;20463;-48
2024/04/18 01:40:15;;;;;;;2.70;1.60;;;12.30;96.60;;;;;;5559497;25;20470;-49
2024/04/18 01:42:45;;;;;;;1.63;1.10;;;12.30;96.40;;;;;;5516334;25;20534;-50
2024/04/18 01:45:27;;;;;;;1.63;1.40;;;12.20;96.60;;;;;;5554072;25;20447;-49
2024/04/18 01:48:12;;;;;;;1.70;1.30;;;12.30;96.50;;;;;;5558761;25;20447;-49
2024/04/18 01:51:03;;;;;;;1.40;1.20;;;12.20;96.50;;;;;;5558481;25;20455;-49
2024/04/18 01:53:31;;;;;;;1.77;1.40;;;12.20;96.40;;;;;;5529309;25;20520;-48
2024/04/18 01:56:00;;;;;;;1.87;1.20;;;12.30;96.50;;;;;;5559948;25;20448;-46
2024/04/18 01:58:45;;;;;;;1.70;1.07;;;12.20;96.50;;;;;;5555144;25;20452;-47
2024/04/18 02:01:15;;;;;;;1.50;1.27;;;12.30;96.40;;;;;;5558108;25;20986;-48
2024/04/18 02:03:43;;;;;;;1.40;0.87;;;12.30;96.50;;;;;;5559173;25;20539;-49
2024/04/18 02:06:15;;;;;;;1.60;1.50;;;12.20;96.30;;;;;;5559632;25;20799;-48
2024/04/18 02:08:48;;;;;;;1.77;1.43;;;12.30;96.30;;;;;;5558674;25;20451;-46
2024/04/18 02:11:38;;;;;;;1.30;1.00;;;12.20;96.30;;;;;;5545355;25;20474;-47
2024/04/18 02:14:11;;;;;;;2.33;1.43;;;12.20;96.30;;;;;;5552388;25;20567;-49
2024/04/18 02:16:41;;;;;;;1.57;1.30;;;12.30;96.30;;;;;;5559803;25;20461;-47
2024/04/18 02:19:24;;;;;;;1.43;1.20;;;12.20;96.20;;;;;;5558624;25;20509;-47
2024/04/18 02:22:00;;;;;;;1.60;1.23;;;12.20;96.30;;;;;;5552588;25;20465;-48
2024/04/18 02:24:37;;;;;;;1.90;1.00;;;12.20;96.30;;;;;;5560268;25;20788;-47
2024/04/18 02:27:07;;;;;;;2.10;1.73;;;12.20;96.30;;;;;;5558276;25;20832;-46
2024/04/18 02:29:37;;;;;;;1.50;1.10;;;12.20;96.10;;;;;;5545855;25;20501;-46
2024/04/18 02:32:07;;;;;;;2.80;2.50;;;12.20;96.20;;;;;;5568081;25;20450;-50
2024/04/18 02:34:34;;;;;;;2.10;1.50;;;12.20;96.10;;;;;;5552983;25;20450;-47
2024/04/18 02:37:24;;;;;;;1.37;1.10;;;12.20;96.20;;;;;;5559765;25;20450;-46
2024/04/18 02:39:51;;;;;;;1.67;1.33;;;12.20;96.30;;;;;;5558238;25;20458;-47
2024/04/18 02:42:28;;;;;;;2.20;1.60;;;12.20;96.70;;;;;;5549243;25;20446;-47
2024/04/18 02:45:01;;;;;;;1.37;1.13;;;12.20;96.30;;;;;;5551678;25;20857;-47
2024/04/18 02:47:52;;;;;;;2.10;1.53;;;12.20;96.30;;;;;;5556687;25;20487;-48
2024/04/18 02:50:38;;;;;;;1.67;1.37;;;12.10;96.10;;;;;;5562469;25;20514;-47
2024/04/18 02:53:08;;;;;;;1.40;1.17;;;12.20;96.20;;;;;;5551481;25;20858;-48
2024/04/18 02:55:55;;;;;;;1.80;1.37;;;12.20;96.30;;;;;;5546342;25;20447;-46
2024/04/18 02:58:34;;;;;;;2.03;1.33;;;12.20;96.30;;;;;;5521700;25;20700;-47
2024/04/18 03:01:19;;;;;;;2.10;1.40;;;12.20;96.20;;;;;;5560149;25;20470;-47
2024/04/18 03:03:49;;;;;;;1.60;1.20;;;12.20;96.20;;;;;;5547284;25;20446;-46
2024/04/18 03:06:31;;;;;;;1.80;1.33;;;12.10;96.20;;;;;;5543914;25;20507;-51
2024/04/18 03:09:01;;;;;;;1.90;1.17;;;12.20;96.20;;;;;;5557160;25;20442;-47
2024/04/18 03:11:30;;;;;;;2.30;1.67;;;12.20;96.20;;;;;;5563974;25;20800;-48
2024/04/18 03:14:09;;;;;;;1.70;1.47;;;12.20;96.20;;;;;;5548916;25;21123;-46
2024/04/18 03:16:39;;;;;;;1.67;1.50;;;12.10;96.20;;;;;;5519623;25;20998;-47
2024/04/18 03:19:21;;;;;;;1.60;1.20;;;12.10;96.20;;;;;;5559962;25;20462;-47
2024/04/18 03:21:51;;;;;;;1.87;1.37;;;12.10;96.10;;;;;;5542794;25;20570;-46
2024/04/18 03:24:23;;;;;;;1.77;1.50;;;12.10;96.10;;;;;;5564479;25;20459;-46
2024/04/18 03:26:52;;;;;;;1.90;1.13;;;12.10;96.10;;;;;;5564263;25;20865;-47
2024/04/18 03:29:21;;;;;;;1.70;1.27;;;12.10;96.20;;;;;;5553324;25;20570;-46
2024/04/18 03:32:02;;;;;;;2.67;1.70;;;12.10;96.10;;;;;;5561996;25;20463;-46
2024/04/18 03:34:47;;;;;;;2.87;1.53;;;12.10;96.20;;;;;;5558242;25;20506;-47
2024/04/18 03:37:17;;;;;;;1.97;1.40;;;12.10;96.10;;;;;;5539705;25;20458;-47
2024/04/18 03:39:47;;;;;;;1.90;1.60;;;12.10;96.10;;;;;;5563173;25;20454;-48
2024/04/18 03:42:17;;;;;;;1.60;1.30;;;12.10;96.10;;;;;;5553515;25;20574;-49
2024/04/18 03:44:53;;;;;;;2.00;1.23;;;12.10;96.10;;;;;;5555076;25;21051;-48
2024/04/18 03:47:26;;;;;;;2.13;1.20;;;12.10;96.10;;;;;;5542250;25;20462;-49
2024/04/18 03:50:11;;;;;;;2.07;1.63;;;12.10;96.10;;;;;;5537636;25;20726;-49
2024/04/18 03:52:39;;;;;;;1.77;1.27;;;12.10;96.10;;;;;;5560562;25;21135;-53
2024/04/18 03:55:28;;;;;;;2.00;1.50;;;12.10;96.10;;;;;;5547339;25;20531;-48
2024/04/18 03:57:55;;;;;;;1.43;1.20;;;12.10;96.10;;;;;;5560132;25;20498;-48
2024/04/18 04:00:43;;;;;;;1.70;1.33;;;12.10;96.10;;;;;;5556494;25;20811;-47
2024/04/18 04:03:13;;;;;;;1.80;1.57;;;12.10;96.10;;;;;;5561539;25;20446;-48
2024/04/18 04:05:43;;;;;;;1.60;1.50;;;12.10;96.10;;;;;;5546314;25;20504;-49
2024/04/18 04:08:11;;;;;;;2.77;2.30;;;12.10;96.10;;;;;;5553427;25;21795;-49
2024/04/18 04:10:41;;;;;;;1.70;1.00;;;12.10;96.00;;;;;;5561140;25;21119;-48
2024/04/18 04:13:08;;;;;;;1.90;1.23;;;12.10;96.10;;;;;;5562303;25;20903;-48
2024/04/18 04:15:44;;;;;;;2.30;1.90;;;12.00;96.00;;;;;;5547205;25;20512;-48
2024/04/18 04:18:34;;;;;;;2.20;1.83;;;12.00;96.00;;;;;;5550821;25;20548;-46
2024/04/18 04:21:39;;;;;;;3.53;2.70;;;12.00;96.00;;;;;;5530721;25;20468;-48
2024/04/18 04:24:07;;;;;;;2.00;1.70;;;12.00;95.90;;;;;;5557119;25;20508;-47
2024/04/18 04:26:52;;;;;;;2.30;1.63;;;12.00;96.00;;;;;;5540443;25;20447;-46
2024/04/18 04:29:20;;;;;;;5.70;2.60;;;12.00;96.00;;;;;;5553013;25;20587;-49
2024/04/18 04:31:49;;;;;;;1.80;1.50;;;12.00;96.00;;;;;;5558772;25;20451;-50
2024/04/18 04:34:19;;;;;;;2.20;1.70;;;12.00;96.00;;;;;;5560083;25;21046;-47
2024/04/18 04:36:49;;;;;;;2.10;1.60;;;12.00;96.00;;;;;;5532190;25;20500;-47
2024/04/18 04:39:16;;;;;;;3.90;1.90;;;12.00;96.00;;;;;;5561894;25;20462;-48
2024/04/18 04:41:46;;;;;;;1.97;1.37;;;12.00;96.00;;;;;;5561098;25;20522;-47
2024/04/18 04:44:13;;;;;;;1.90;1.50;;;12.00;96.10;;;;;;5554334;25;20545;-46
2024/04/18 04:46:53;;;;;;;3.03;1.87;;;12.00;96.00;;;;;;5553008;25;20490;-47
2024/04/18 04:49:23;;;;;;;1.80;1.70;;;12.00;96.00;;;;;;5517080;25;20576;-48
2024/04/18 04:52:01;;;;;;;1.80;1.60;;;12.00;95.90;;;;;;5556301;25;20474;-48
2024/04/18 04:54:42;;;;;;;2.40;1.90;;;12.00;96.10;;;;;;5553831;25;20458;-46
2024/04/18 04:57:13;;;;;;;1.90;1.60;;;12.00;95.90;;;;;;5555549;25;20899;-46
2024/04/18 04:59:41;;;;;;;2.63;1.53;;;12.00;96.00;;;;;;5553831;25;20451;-47
2024/04/18 05:02:11;;;;;;;2.10;1.37;;;12.00;96.00;;;;;;5561058;25;20885;-47
2024/04/18 05:04:50;;;;;;;1.93;1.53;;;12.00;96.00;;;;;;5546647;25;20447;-47
2024/04/18 05:07:32;;;;;;;1.60;1.30;;;12.00;96.00;;;;;;5541802;25;20446;-49
2024/04/18 05:10:19;;;;;;;1.93;1.60;;;12.00;95.90;;;;;;5559089;25;20506;-48
2024/04/18 05:12:50;;;;;;;2.70;2.33;;;11.90;95.80;;;;;;5555178;25;20514;-48
2024/04/18 05:15:33;;;;;;;2.10;1.90;;;11.90;95.80;;;;;;5534769;25;21055;-46
2024/04/18 05:18:03;;;;;;;2.60;1.90;;;11.90;95.90;;;;;;5549816;25;20561;-46
2024/04/18 05:20:33;;;;;;;2.80;2.07;;;12.00;95.90;;;;;;5555867;25;20796;-48
2024/04/18 05:23:04;;;;;;;3.50;2.30;;;11.90;95.90;;;;;;5542904;25;20535;-48
2024/04/18 05:25:31;;;;;;;2.50;2.07;;;11.90;95.90;;;;;;5556874;25;20485;-48
2024/04/18 05:28:29;;;;;;;2.03;1.83;;;11.90;95.90;;;;;;5534291;25;20446;-49
2024/04/18 05:31:00;;;;;;;2.83;2.07;;;11.90;95.90;;;;;;5531160;25;20461;-48
2024/04/18 05:33:30;;;;;;;2.23;1.80;;;11.90;95.90;;;;;;5518407;25;20576;-46
2024/04/18 05:36:03;;;;;;;2.43;2.20;;;11.90;95.90;;;;;;5534542;25;20821;-46
2024/04/18 05:38:33;;;;;;;1.90;1.70;;;11.90;95.90;;;;;;5557467;25;20469;-48
2024/04/18 05:41:03;;;;;;;2.30;1.77;;;11.90;95.90;;;;;;5559754;25;20458;-48
2024/04/18 05:43:51;;;;;;;1.70;1.50;;;11.90;95.90;;;;;;5552599;25;20443;-48
2024/04/18 05:46:19;;;;;;;1.93;1.57;;;11.90;95.90;;;;;;5544435;25;20537;-47
2024/04/18 05:48:48;;;;;;;2.07;1.73;;;11.90;95.90;;;;;;5560930;25;20453;-47
2024/04/18 05:51:21;;;;;;;2.07;1.87;;;11.90;95.90;;;;;;5517217;25;20524;-48
2024/04/18 05:53:54;;;;;;;4.17;2.77;;;11.90;95.90;;;;;;5553459;25;20532;-48
2024/04/18 05:56:33;;;;;;;2.33;2.00;;;11.90;95.80;;;;;;5545133;25;20454;-47
2024/04/18 05:59:03;;;;;;;2.53;2.10;;;11.90;95.90;;;;;;5550085;25;20458;-50
2024/04/18 06:01:32;;;;;;;2.10;1.90;;;11.90;95.80;;;;;;5557449;25;21059;-45
2024/04/18 06:04:02;;;;;;;1.73;1.50;;;11.90;95.80;;;;;;5566423;25;20540;-47
2024/04/18 06:06:35;;;;;;;2.40;1.87;;;11.90;95.80;;;;;;5517599;25;20509;-47
2024/04/18 06:09:19;;;;;;;2.03;1.80;;;11.90;95.90;;;;;;5553423;25;20804;-48
2024/04/18 06:11:49;;;;;;;1.93;1.50;;;11.90;95.90;;;;;;5558534;25;20497;-49
2024/04/18 06:14:22;;;;;;;2.20;1.90;;;11.90;95.90;;;;;;5550236;25;20544;-49
2024/04/18 06:16:52;;;;;;;2.40;2.07;;;11.90;95.80;;;;;;5553565;25;20539;-49
2024/04/18 06:19:42;;;;;;;2.33;2.13;;;11.90;95.80;;;;;;5552052;25;20450;-48
2024/04/18 06:22:32;;;;;;;2.20;1.60;;;11.90;95.80;;;;;;5541552;25;20513;-46
2024/04/18 06:25:21;;;;;;;1.77;1.40;;;11.80;95.80;;;;;;5565178;25;20469;-47
2024/04/18 06:27:51;;;;;;;2.57;2.30;;;11.90;95.90;;;;;;5558338;25;20466;-47
2024/04/18 06:30:19;;;;;;;2.30;1.83;;;11.90;95.80;;;;;;5549066;25;20474;-48
2024/04/18 06:32:48;;;;;;;2.47;2.00;;;11.80;95.70;;;;;;5558046;25;20540;-48
2024/04/18 06:35:18;;;;;;;2.20;1.70;;;11.80;95.80;;;;;;5560475;25;20559;-47
2024/04/18 06:37:51;;;;;;;2.73;1.90;;;11.80;95.80;;;;;;5555353;25;20837;-46
2024/04/18 06:40:23;;;;;;;1.93;1.73;;;11.90;95.90;;;;;;5562181;25;20514;-48
2024/04/18 06:42:55;;;;;;;2.70;2.37;;;11.90;95.90;;;;;;5567870;25;20451;-46
2024/04/18 06:45:25;;;;;;;2.10;1.90;;;11.80;95.60;;;;;;5553589;25;20444;-48
2024/04/18 06:47:55;;;;;;;2.33;1.80;;;11.80;95.80;;;;;;5555227;25;20453;-48
2024/04/18 06:50:25;;;;;;;1.63;1.47;;;11.80;95.80;;;;;;5561182;25;20449;-48
2024/04/18 06:52:58;;;;;;;2.30;1.90;;;11.80;95.80;;;;;;5562421;25;20891;-46
2024/04/18 06:55:28;;;;;;;1.90;1.70;;;11.80;95.80;;;;;;5546664;25;20451;-49
2024/04/18 06:57:59;;;;;;;1.97;1.60;;;11.80;95.80;;;;;;5558812;25;20460;-49
2024/04/18 07:00:29;;;;;;;1.83;1.53;;;11.80;95.80;;;;;;5551364;25;20477;-48
2024/04/18 07:02:59;;;;;;;2.20;1.70;;;11.80;95.80;;;;;;5561082;25;21005;-46
2024/04/18 07:05:47;;;;;;;1.77;1.60;;;11.80;95.90;;;;;;5550959;25;21020;-46
2024/04/18 07:08:26;;;;;;;3.30;2.93;;;11.80;95.90;;;;;;5556772;25;20840;-47
2024/04/18 07:10:58;;;;;;;10.07;7.15;;;11.90;95.80;;;;;;5561237;25;20943;-48
2024/04/18 07:13:29;;;;;;;7.90;6.40;;;11.70;93.60;;;;;;5545251;25;20280;-48
2024/04/18 07:16:05;;;;;;;5.27;4.47;;;11.70;94.00;;;;;;5556866;25;20456;-49
2024/04/18 07:18:54;;;;;;;6.40;5.77;;;11.70;94.60;;;;;;5553440;25;20461;-48
2024/04/18 07:21:24;;;;;;;5.40;4.90;;;11.80;94.90;;;;;;5559449;25;20465;-51
2024/04/18 07:24:18;;;;;;;6.03;5.43;;;11.80;95.00;;;;;;5558165;25;21049;-50
2024/04/18 07:26:49;;;;;;;9.50;5.77;;;11.80;95.10;;;;;;5553002;25;20908;-47
2024/04/18 07:29:21;;;;;;;6.13;5.43;;;11.80;95.00;;;;;;5552949;25;21075;-48
2024/04/18 07:31:51;;;;;;;5.20;4.63;;;11.80;95.10;;;;;;5562210;25;20518;-48
2024/04/18 07:34:20;;;;;;;5.37;4.80;;;11.90;95.10;;;;;;5559936;25;20530;-49
2024/04/18 07:36:50;;;;;;;5.73;4.43;;;11.90;95.20;;;;;;5558288;25;20853;-47
2024/04/18 07:39:24;;;;;;;6.60;4.70;;;11.90;95.20;;;;;;5561783;25;20446;-46
2024/04/18 07:41:54;;;;;;;4.50;4.10;;;11.90;95.20;;;;;;5552107;25;20526;-46
2024/04/18 07:44:24;;;;;;;5.40;4.90;;;11.90;95.20;;;;;;5552900;25;20574;-47
2024/04/18 07:46:54;;;;;;;5.50;4.57;;;11.90;95.20;;;;;;5556272;25;20469;-46
2024/04/18 07:49:24;;;;;;;4.30;3.90;;;11.90;95.20;;;;;;5561217;25;20905;-49
2024/04/18 07:51:54;;;;;;;4.40;3.83;;;11.90;95.20;;;;;;5561491;25;20864;-46
2024/04/18 07:54:29;;;;;;;4.30;3.90;;;11.90;95.30;;;;;;5555748;25;20510;-47
2024/04/18 07:56:58;;;;;;;4.73;4.33;;;11.90;95.30;;;;;;5559360;25;20450;-46
2024/04/18 07:59:30;;;;;;;4.70;3.83;;;11.90;95.30;;;;;;5542467;25;20521;-46
2024/04/18 08:02:00;;;;;;;4.70;4.00;;;11.90;95.80;;;;;;5560896;25;20571;-47
2024/04/18 08:04:33;;;;;;;4.37;3.97;;;11.90;95.30;;;;;;5582842;25;20450;-48
2024/04/18 08:07:22;;;;;;;3.57;3.27;;;11.90;95.30;;;;;;5546597;25;21113;-49
2024/04/18 08:10:00;;;;;;;4.20;3.80;;;11.90;95.30;;;;;;5557114;25;20525;-48
2024/04/18 08:12:37;;;;;;;5.60;4.00;;;11.90;95.30;;;;;;5560667;25;20459;-49
2024/04/18 08:15:13;;;;;;;7.20;3.57;;;11.90;95.30;;;;;;5556966;25;20470;-46
2024/04/18 08:17:49;;;;;;;4.80;4.37;;;11.90;95.40;;;;;;5558588;25;21049;-49
2024/04/18 08:20:19;;;;;;;4.20;3.80;;;11.90;95.30;;;;;;5560234;25;20450;-48
2024/04/18 08:22:50;;;;;;;4.03;2.90;;;11.90;95.30;;;;;;5517370;25;20518;-48
2024/04/18 08:25:23;;;;;;;3.30;3.00;;;11.90;95.30;;;;;;5559360;25;20520;-46
2024/04/18 08:27:53;;;;;;;4.23;3.43;;;11.90;95.30;;;;;;5552616;25;20569;-49
2024/04/18 08:30:23;;;;;;;3.63;3.30;;;11.90;95.40;;;;;;5554391;25;20479;-47
2024/04/18 08:32:53;;;;;;;4.10;3.70;;;11.90;95.40;;;;;;5564500;25;20469;-47
2024/04/18 08:35:23;;;;;;;4.00;3.60;;;11.90;95.40;;;;;;5560213;25;20514;-46
2024/04/18 08:37:53;;;;;;;3.63;3.30;;;11.90;95.40;;;;;;5551857;25;20477;-48
2024/04/18 08:40:28;;;;;;;3.20;2.90;;;11.90;95.30;;;;;;5553680;25;20527;-47
2024/04/18 08:42:57;;;;;;;3.00;2.70;;;11.90;95.30;;;;;;5557144;25;20461;-48
2024/04/18 08:45:33;;;;;;;3.63;3.27;;;11.90;95.30;;;;;;5551087;25;20576;-47
2024/04/18 08:48:04;;;;;;;3.93;3.50;;;11.90;95.30;;;;;;5557312;25;20442;-47
2024/04/18 08:50:34;;;;;;;3.23;2.93;;;12.00;95.30;;;;;;5573894;25;20524;-48
2024/04/18 08:53:06;;;;;;;3.63;3.33;;;11.90;95.30;;;;;;5557399;25;20934;-49
2024/04/18 08:55:41;;;;;;;3.50;2.90;;;11.90;95.30;;;;;;5561573;25;20458;-49
2024/04/18 08:58:14;;;;;;;3.50;2.77;;;11.90;95.30;;;;;;5556915;25;20451;-47
2024/04/18 09:00:46;;;;;;;4.60;2.80;;;11.90;95.30;;;;;;5559217;25;20575;-47
2024/04/18 09:03:16;;;;;;;3.20;2.90;;;11.90;95.20;;;;;;5557378;25;20518;-45
2024/04/18 09:05:46;;;;;;;3.50;2.97;;;12.00;95.30;;;;;;5559445;25;20506;-47
2024/04/18 09:08:16;;;;;;;3.70;3.07;;;11.90;95.20;;;;;;5550112;25;20447;-46
2024/04/18 09:10:50;;;;;;;3.53;3.23;;;11.90;95.20;;;;;;5560164;25;20457;-47
2024/04/18 09:13:20;;;;;;;3.40;3.07;;;11.90;95.20;;;;;;5552033;25;20509;-47
2024/04/18 09:15:52;;;;;;;2.50;2.20;;;12.00;95.20;;;;;;5554192;25;20534;-47
2024/04/18 09:18:22;;;;;;;2.97;2.50;;;11.90;95.20;;;;;;5517919;25;20462;-48
2024/04/18 09:20:52;;;;;;;3.63;2.60;;;11.90;95.20;;;;;;5533392;25;20888;-50
2024/04/18 09:23:21;;;;;;;3.30;2.90;;;12.00;95.20;;;;;;5539013;25;20577;-47
2024/04/18 09:25:57;;;;;;;3.20;2.70;;;11.90;95.10;;;;;;5537943;25;21646;-46
2024/04/18 09:28:28;;;;;;;3.07;2.77;;;11.90;95.10;;;;;;5507150;25;20869;-48
2024/04/18 09:31:01;;;;;;;3.60;3.00;;;11.90;95.10;;;;;;5532797;25;20556;-46
2024/04/18 09:33:35;;;;;;;2.63;2.43;;;11.90;95.20;;;;;;5537754;25;22011;-46
2024/04/18 09:36:06;;;;;;;4.07;2.90;;;11.90;95.10;;;;;;5540492;25;20468;-46
2024/04/18 09:38:39;;;;;;;3.30;2.80;;;12.00;95.20;;;;;;5550934;25;21012;-46
2024/04/18 09:41:14;;;;;;;3.20;2.63;;;12.00;95.10;;;;;;5541093;25;20481;-46
2024/04/18 09:43:50;;;;;;;2.67;2.40;;;11.90;95.00;;;;;;5539418;25;20446;-48
2024/04/18 09:46:21;;;;;;;2.43;2.23;;;11.90;95.00;;;;;;5549285;25;20561;-45
2024/04/18 09:48:51;;;;;;;3.53;2.30;;;11.90;95.00;;;;;;5540956;25;20521;-46
2024/04/18 09:51:22;;;;;;;2.33;2.10;;;11.90;95.00;;;;;;5536223;25;20844;-46
2024/04/18 09:53:52;;;;;;;3.93;2.40;;;11.90;95.00;;;;;;5540952;25;20572;-47
2024/04/18 09:56:26;;;;;;;2.73;2.33;;;11.90;95.00;;;;;;5531395;25;20454;-47
2024/04/18 09:58:58;;;;;;;3.67;2.63;;;12.00;95.10;;;;;;5531660;25;21209;-47
2024/04/18 10:01:28;;;;;;;2.67;2.47;;;11.90;95.00;;;;;;5539071;25;20567;-45
2024/04/18 10:04:00;;;;;;;2.70;2.10;;;11.90;95.00;;;;;;5541642;25;20526;-47
2024/04/18 10:06:36;;;;;;;3.87;2.20;;;11.90;95.00;;;;;;5534622;25;20454;-47
2024/04/18 10:09:08;;;;;;;3.13;2.37;;;12.00;95.00;;;;;;5545800;25;20456;-47
2024/04/18 10:11:42;;;;;;;3.63;2.10;;;12.00;94.90;;;;;;5551675;25;21003;-47
2024/04/18 10:14:12;;;;;;;2.10;1.70;;;12.00;94.80;;;;;;5549161;25;21074;-47
2024/04/18 10:16:50;;;;;;;2.90;2.20;;;12.00;94.80;;;;;;5552764;25;20570;-46
2024/04/18 10:19:21;;;;;;;2.20;2.00;;;12.00;94.80;;;;;;5554884;25;21021;-47
2024/04/18 10:21:55;;;;;;;2.27;2.03;;;12.00;94.80;;;;;;5535916;25;20561;-47
2024/04/18 10:24:51;;;;;;;2.73;2.40;;;12.00;94.80;;;;;;5537833;25;20862;-47
2024/04/18 10:27:24;;;;;;;2.60;2.40;;;12.00;94.80;;;;;;5552622;25;20466;-47
2024/04/18 10:29:56;;;;;;;2.63;2.40;;;12.00;94.70;;;;;;5539794;25;20505;-47
2024/04/18 10:32:26;;;;;;;4.13;2.23;;;12.00;94.80;;;;;;5548418;25;20515;-47
2024/04/18 10:34:56;;;;;;;2.63;2.43;;;12.00;94.70;;;;;;5558565;25;20567;-47
2024/04/18 10:37:26;;;;;;;2.57;2.00;;;12.00;94.70;;;;;;5541648;25;21149;-46
2024/04/18 10:39:57;;;;;;;3.57;1.83;;;12.00;94.70;;;;;;5555916;25;20502;-46
2024/04/18 10:42:32;;;;;;;2.53;2.00;;;12.00;94.70;;;;;;5559045;25;20511;-46
2024/04/18 10:45:00;;;;;;;4.03;2.37;;;12.00;94.60;;;;;;5545777;25;20465;-46
2024/04/18 10:47:30;;;;;;;2.60;2.07;;;12.00;94.60;;;;;;5514758;25;20910;-46
2024/04/18 10:50:00;;;;;;;2.90;2.00;;;12.00;94.60;;;;;;5559705;25;20883;-47
2024/04/18 10:52:30;;;;;;;2.53;1.80;;;12.00;94.40;;;;;;5518529;25;20843;-46
2024/04/18 10:55:00;;;;;;;3.20;1.90;;;12.00;94.60;;;;;;5522250;25;20856;-47
2024/04/18 10:57:33;;;;;;;2.60;2.10;;;12.10;94.60;;;;;;5547659;25;20946;-48
2024/04/18 11:00:03;;;;;;;2.20;2.00;;;12.10;94.50;;;;;;5552778;25;20463;-45
2024/04/18 11:02:33;;;;;;;2.03;1.83;;;12.10;95.10;;;;;;5548304;25;20454;-45
2024/04/18 11:05:04;;;;;;;2.70;1.70;;;12.10;95.10;;;;;;5552572;25;20875;-45
2024/04/18 11:07:53;;;;;;;2.70;1.97;;;12.10;94.60;;;;;;5549455;25;20461;-46
2024/04/18 11:10:25;;;;;;;2.33;1.97;;;12.10;94.60;;;;;;5549908;25;20482;-46
2024/04/18 11:13:00;;;;;;;2.60;1.80;;;12.10;94.50;;;;;;5549936;25;20464;-46
2024/04/18 11:15:30;;;;;;;2.27;2.00;;;12.10;94.60;;;;;;5560831;25;21087;-47
2024/04/18 11:18:04;;;;;;;3.50;2.33;;;12.10;94.50;;;;;;5547350;25;20512;-45
2024/04/18 11:20:34;;;;;;;3.23;2.13;;;12.10;94.50;;;;;;5559009;25;20507;-47
2024/04/18 11:23:05;;;;;;;4.50;2.13;;;12.10;94.60;;;;;;5560027;25;20579;-47
2024/04/18 11:25:44;;;;;;;2.50;2.07;;;12.10;94.60;;;;;;5556570;25;20458;-47
2024/04/18 11:28:16;;;;;;;2.13;1.93;;;12.10;94.60;;;;;;5560618;25;20562;-47
2024/04/18 11:30:46;;;;;;;2.90;1.73;;;12.10;94.50;;;;;;5560287;25;20454;-47
2024/04/18 11:33:22;;;;;;;1.77;1.57;;;12.10;94.50;;;;;;5560815;25;20850;-45
2024/04/18 11:35:53;;;;;;;2.50;1.90;;;12.10;94.50;;;;;;5565030;25;20446;-46
2024/04/18 11:38:23;;;;;;;2.00;1.77;;;12.10;94.50;;;;;;5558440;25;20835;-47
2024/04/18 11:40:53;;;;;;;2.53;2.00;;;12.10;94.60;;;;;;5551420;25;20458;-46
2024/04/18 11:43:25;;;;;;;2.70;1.60;;;12.10;94.60;;;;;;5565615;25;20897;-47
2024/04/18 11:45:55;;;;;;;4.03;1.77;;;12.10;94.60;;;;;;5553026;25;20502;-46
2024/04/18 11:48:25;;;;;;;4.03;2.13;;;12.10;94.50;;;;;;5560156;25;20571;-45
2024/04/18 11:50:55;;;;;;;1.90;1.50;;;12.10;94.50;;;;;;5559679;25;20499;-45
2024/04/18 11:53:25;;;;;;;2.50;2.20;;;12.10;94.50;;;;;;5538558;25;20466;-47
2024/04/18 11:55:55;;;;;;;1.70;1.23;;;12.10;94.50;;;;;;5560347;25;20723;-48
2024/04/18 11:58:32;;;;;;;2.70;1.70;;;12.10;94.40;;;;;;5512933;25;21019;-47
2024/04/18 12:01:03;;;;;;;2.80;1.47;;;12.10;94.40;;;;;;5556890;25;20466;-47
2024/04/18 12:03:42;;;;;;;1.97;1.57;;;12.10;94.40;;;;;;5554648;25;20449;-47
2024/04/18 12:06:31;;;;;;;1.90;1.70;;;12.10;94.40;;;;;;5549184;25;20507;-47
2024/04/18 12:09:01;;;;;;;2.60;1.93;;;12.10;94.30;;;;;;5558382;25;20465;-47
2024/04/18 12:11:32;;;;;;;2.23;2.03;;;12.10;94.30;;;;;;5542934;25;20567;-47
2024/04/18 12:14:16;;;;;;;2.17;1.80;;;12.10;94.30;;;;;;5561811;25;20903;-47
2024/04/18 12:16:55;;;;;;;2.10;1.60;;;12.10;94.40;;;;;;5559983;25;20537;-47
2024/04/18 12:19:44;;;;;;;2.23;1.80;;;12.20;94.50;;;;;;5557474;25;20606;-48
2024/04/18 12:22:33;;;;;;;2.43;1.87;;;12.20;94.50;;;;;;5549483;25;20814;-47
2024/04/18 12:25:16;;;;;;;2.33;1.53;;;12.20;93.30;;;;;;5557171;25;20446;-46
2024/04/18 12:27:47;;;;;;;1.93;1.40;;;12.20;93.60;;;;;;5520674;25;20458;-47
2024/04/18 12:30:35;;;;;;;3.23;1.80;;;12.20;93.50;;;;;;5560542;25;20503;-47
2024/04/18 12:33:20;;;;;;;2.07;1.60;;;12.20;93.70;;;;;;5557489;25;20563;-47
2024/04/18 12:35:51;;;;;;;2.00;1.50;;;12.10;93.80;;;;;;5553424;25;20553;-47
2024/04/18 12:38:18;;;;;;;2.00;1.50;;;12.10;93.70;;;;;;5560387;25;20454;-47
2024/04/18 12:40:48;;;;;;;2.00;1.53;;;12.10;93.80;;;;;;5562147;25;20559;-48
2024/04/18 12:43:19;;;;;;;2.53;1.73;;;12.20;94.00;;;;;;5514497;25;20511;-46
2024/04/18 12:45:59;;;;;;;1.93;1.47;;;12.20;93.80;;;;;;5553783;25;20597;-45
2024/04/18 12:48:53;;;;;;;6.10;2.03;;;12.20;94.00;;;;;;5552045;25;20568;-47
2024/04/18 12:51:24;;;;;;;2.63;1.87;;;12.20;94.00;;;;;;5523847;25;20851;-46
2024/04/18 12:53:55;;;;;;;3.37;1.70;;;12.20;94.00;;;;;;5560164;25;20526;-45
2024/04/18 12:56:47;;;;;;;1.50;1.40;;;12.20;94.00;;;;;;5557224;25;20856;-47
2024/04/18 12:59:24;;;;;;;2.53;1.40;;;12.20;94.00;;;;;;5546701;25;20458;-46
2024/04/18 13:02:00;;;;;;;2.70;1.67;;;12.20;94.00;;;;;;5559362;25;20507;-46
2024/04/18 13:04:31;;;;;;;1.60;1.20;;;12.20;93.90;;;;;;5548045;25;20502;-47
2024/04/18 13:07:01;;;;;;;2.30;1.70;;;12.20;94.00;;;;;;5560637;25;20860;-45
2024/04/18 13:09:31;;;;;;;2.00;1.70;;;12.20;93.90;;;;;;5557840;25;20474;-46
2024/04/18 13:12:02;;;;;;;2.50;1.87;;;12.30;93.90;;;;;;5548857;25;20467;-47
2024/04/18 13:14:51;;;;;;;1.70;1.37;;;12.20;94.00;;;;;;5553781;25;20447;-47
2024/04/18 13:17:23;;;;;;;3.50;1.53;;;12.20;93.90;;;;;;5571118;25;20448;-47
2024/04/18 13:19:53;;;;;;;2.17;1.50;;;12.30;94.00;;;;;;5554808;25;21262;-47
2024/04/18 13:22:23;;;;;;;2.17;1.70;;;12.20;93.90;;;;;;5549731;25;20470;-47
2024/04/18 13:24:53;;;;;;;2.43;1.37;;;12.30;94.00;;;;;;5559645;25;20998;-47